Time;durP1;ratioP1;P1;durP2;ratioP2;P2;SDS_P1;SDS_P2;PMS_P1;PMS_P2;Temp;Humidity;BMP_temperature;BMP_pressure;BME280_temperature;BME280_humidity;BME280_pressure;Samples;Min_cycle;Max_cycle;Signal;HPM_P1;HPM_P2
2021/08/28 08:36:28;;;;;;;6.00;5.50;;;14.10;99.90;;;;;;5090854;28;20549;-72
2021/08/28 08:38:54;;;;;;;5.35;4.95;;;14.10;99.90;;;;;;5089461;28;20595;-72
2021/08/28 08:41:23;;;;;;;6.88;5.97;;;14.20;99.90;;;;;;5090699;28;20193;-72
2021/08/28 08:43:49;;;;;;;6.97;5.90;;;14.20;99.90;;;;;;5090662;28;20178;-72
2021/08/28 08:46:15;;;;;;;6.95;6.40;;;14.20;99.90;;;;;;5090582;28;20536;-72
2021/08/28 08:48:43;;;;;;;7.28;6.68;;;14.10;99.90;;;;;;5090584;28;20599;-72
2021/08/28 08:51:09;;;;;;;5.50;5.00;;;14.30;99.90;;;;;;5089292;28;20203;-72
2021/08/28 09:09:01;;;;;;;5.43;5.03;;;14.00;99.90;;;;;;5070916;28;20601;-72
2021/08/28 09:11:32;;;;;;;6.47;5.82;;;14.10;99.90;;;;;;5069930;28;20184;-72
2021/08/28 09:14:18;;;;;;;5.88;5.45;;;14.20;99.90;;;;;;5071367;28;20171;-72
2021/08/28 09:16:44;;;;;;;6.70;6.10;;;14.20;99.90;;;;;;5070948;28;20164;-72
2021/08/28 09:19:10;;;;;;;8.35;7.57;;;14.10;99.90;;;;;;5070806;28;20180;-72
2021/08/28 09:21:35;;;;;;;13.73;9.10;;;14.40;99.90;;;;;;5070920;28;20160;-72
2021/08/28 09:24:03;;;;;;;8.65;7.75;;;14.40;99.90;;;;;;5070680;28;20242;-72
2021/08/28 09:26:33;;;;;;;9.68;8.27;;;14.50;99.90;;;;;;5070733;28;20247;-72
2021/08/28 09:29:00;;;;;;;9.18;8.32;;;14.80;99.90;;;;;;5068927;28;20271;-72
2021/08/28 09:31:40;;;;;;;16.23;8.55;;;15.00;99.90;;;;;;5070139;28;20172;-72
2021/08/28 09:34:28;;;;;;;9.00;8.23;;;15.10;99.90;;;;;;5070157;28;20642;-72
2021/08/28 09:37:02;;;;;;;7.93;7.22;;;15.30;99.90;;;;;;5069912;28;20169;-72
2021/08/28 09:39:45;;;;;;;10.90;8.13;;;15.40;99.90;;;;;;5069505;28;20183;-72
2021/08/28 09:42:18;;;;;;;9.20;7.78;;;15.50;99.90;;;;;;5069989;28;20167;-72
2021/08/28 09:44:45;;;;;;;11.20;8.60;;;15.60;99.90;;;;;;5069944;28;20153;-72
2021/08/28 09:47:18;;;;;;;9.45;8.40;;;15.60;99.90;;;;;;5069798;28;20201;-72
2021/08/28 09:49:46;;;;;;;8.73;7.38;;;15.70;99.90;;;;;;5069810;28;20172;-72
2021/08/28 09:52:14;;;;;;;7.90;7.13;;;15.60;99.90;;;;;;5069847;28;20196;-72
2021/08/28 09:54:40;;;;;;;9.18;8.38;;;15.70;99.90;;;;;;5069726;28;20247;-72
2021/08/28 09:57:06;;;;;;;9.23;8.13;;;15.80;99.90;;;;;;5068205;28;20605;-72
2021/08/28 09:59:32;;;;;;;7.70;7.10;;;15.80;99.90;;;;;;5069671;28;20226;-73
2021/08/28 10:01:57;;;;;;;8.85;7.95;;;16.00;99.90;;;;;;5069595;28;20499;-72
2021/08/28 10:04:23;;;;;;;7.82;6.95;;;16.00;99.90;;;;;;5069537;28;20168;-72
2021/08/28 10:06:49;;;;;;;11.02;8.55;;;16.00;99.90;;;;;;5069054;28;20637;-72
2021/08/28 10:09:16;;;;;;;9.93;8.85;;;16.00;99.90;;;;;;5069435;28;20256;-72
2021/08/28 10:11:47;;;;;;;10.15;8.13;;;16.20;99.90;;;;;;5069217;28;20179;-72
2021/08/28 10:14:18;;;;;;;8.57;7.78;;;16.20;99.90;;;;;;5069448;28;20156;-72
2021/08/28 10:16:45;;;;;;;14.60;8.73;;;16.20;99.90;;;;;;5069279;28;20164;-72
2021/08/28 10:19:16;;;;;;;8.85;8.10;;;16.10;99.90;;;;;;5062673;28;20161;-72
2021/08/28 10:21:44;;;;;;;8.45;7.80;;;17.40;99.90;;;;;;5056028;28;20257;-72
2021/08/28 10:24:12;;;;;;;12.20;8.63;;;16.00;99.90;;;;;;5054678;28;20172;-72
2021/08/28 10:26:38;;;;;;;9.82;8.57;;;16.00;99.90;;;;;;5056002;28;20188;-72
2021/08/28 10:29:04;;;;;;;8.55;7.35;;;15.90;99.90;;;;;;5055894;28;20638;-72
2021/08/28 10:31:31;;;;;;;8.63;7.90;;;15.90;99.90;;;;;;5055880;28;20240;-72
2021/08/28 10:33:56;;;;;;;14.27;9.52;;;15.90;99.90;;;;;;5055840;28;20165;-72
2021/08/28 10:36:23;;;;;;;9.82;8.82;;;15.90;99.90;;;;;;5055724;28;20165;-72
2021/08/28 10:38:49;;;;;;;12.50;9.63;;;15.90;99.90;;;;;;5055701;28;20175;-72
2021/08/28 10:41:16;;;;;;;8.93;8.10;;;15.90;99.90;;;;;;5055626;28;20165;-72
2021/08/28 10:43:43;;;;;;;13.43;7.88;;;15.80;99.90;;;;;;5055618;28;20622;-73
2021/08/28 10:46:27;;;;;;;9.98;8.98;;;15.80;99.90;;;;;;5055585;28;20169;-73
2021/08/28 10:48:58;;;;;;;9.25;8.13;;;15.80;99.90;;;;;;5055425;28;20200;-73
2021/08/28 10:51:32;;;;;;;9.35;8.63;;;15.90;99.90;;;;;;5055430;28;20223;-72
2021/08/28 10:54:12;;;;;;;9.32;8.52;;;16.00;99.90;;;;;;5055439;28;20252;-72
2021/08/28 10:56:54;;;;;;;8.82;7.45;;;16.00;99.90;;;;;;5055272;28;20193;-72
2021/08/28 10:59:22;;;;;;;9.32;8.43;;;16.00;99.90;;;;;;5055125;28;20235;-73
2021/08/28 11:02:07;;;;;;;9.57;8.65;;;15.90;99.90;;;;;;5055249;28;20192;-72
2021/08/28 11:04:37;;;;;;;10.27;8.95;;;15.90;99.90;;;;;;5055208;28;20169;-73
2021/08/28 11:07:26;;;;;;;10.35;9.35;;;15.90;99.90;;;;;;5054966;28;20229;-73
2021/08/28 11:10:05;;;;;;;10.35;9.23;;;15.80;99.90;;;;;;5055029;28;20192;-72
2021/08/28 11:12:52;;;;;;;11.02;9.95;;;15.80;99.90;;;;;;5055035;28;20676;-72
2021/08/28 11:15:29;;;;;;;9.93;8.90;;;15.90;99.90;;;;;;5054999;28;20173;-72
2021/08/28 11:18:03;;;;;;;11.45;9.55;;;15.90;99.90;;;;;;5054961;28;20328;-72
2021/08/28 11:20:34;;;;;;;9.15;8.43;;;15.90;99.90;;;;;;5053649;28;20213;-72
2021/08/28 11:23:02;;;;;;;10.05;9.25;;;16.10;99.90;;;;;;5055206;28;20214;-72
2021/08/28 11:25:30;;;;;;;10.60;9.48;;;16.20;99.90;;;;;;5054938;28;20173;-72
2021/08/28 11:27:57;;;;;;;11.32;9.35;;;16.20;99.90;;;;;;5054753;28;20197;-72
2021/08/28 11:30:56;;;;;;;13.07;9.65;;;16.20;99.90;;;;;;5052595;28;20509;-72
2021/08/28 11:33:36;;;;;;;15.68;11.40;;;16.20;99.90;;;;;;5054717;28;20189;-72
2021/08/28 11:36:18;;;;;;;12.88;11.52;;;16.20;99.90;;;;;;5053467;28;20173;-72
2021/08/28 11:38:48;;;;;;;11.35;10.07;;;16.30;99.90;;;;;;5054558;28;20680;-72
2021/08/28 11:41:26;;;;;;;11.32;9.32;;;16.30;99.90;;;;;;5054447;28;20252;-72
2021/08/28 11:43:54;;;;;;;10.45;9.57;;;16.40;99.90;;;;;;5054439;28;20268;-73
2021/08/28 11:46:26;;;;;;;10.10;9.18;;;16.30;99.90;;;;;;5054488;28;20205;-73
2021/08/28 11:48:53;;;;;;;9.38;8.57;;;16.30;99.90;;;;;;5053019;28;20200;-72
2021/08/28 11:51:25;;;;;;;8.45;7.75;;;16.30;99.90;;;;;;5054349;28;20244;-72
2021/08/28 11:53:53;;;;;;;10.77;7.22;;;16.30;99.90;;;;;;5052949;28;20176;-72
2021/08/28 11:56:21;;;;;;;8.80;7.95;;;16.30;99.90;;;;;;5054164;28;20618;-73
2021/08/28 11:58:57;;;;;;;6.65;6.18;;;16.40;99.90;;;;;;5054179;28;20177;-73
2021/08/28 12:01:26;;;;;;;6.63;6.10;;;16.50;99.90;;;;;;5054169;28;20176;-73
2021/08/28 12:03:52;;;;;;;6.93;6.43;;;16.60;99.90;;;;;;5054090;28;20262;-72
2021/08/28 12:06:18;;;;;;;6.55;5.95;;;16.60;99.90;;;;;;5053989;28;20364;-72
2021/08/28 12:08:44;;;;;;;8.68;5.43;;;16.70;99.90;;;;;;5053687;28;20246;-72
2021/08/28 12:11:10;;;;;;;6.60;6.10;;;16.60;99.90;;;;;;5053893;28;20208;-72
2021/08/28 12:14:07;;;;;;;6.07;5.55;;;16.50;99.90;;;;;;5053810;28;20633;-72
2021/08/28 12:16:35;;;;;;;6.60;5.97;;;16.40;99.90;;;;;;5053778;28;20210;-72
2021/08/28 12:19:02;;;;;;;7.65;6.75;;;16.40;99.90;;;;;;5053827;28;20165;-72
2021/08/28 12:21:29;;;;;;;7.93;7.32;;;16.50;99.90;;;;;;5053738;28;20169;-72
2021/08/28 12:23:55;;;;;;;7.20;6.80;;;16.50;99.90;;;;;;5052707;28;20310;-73
2021/08/28 12:26:22;;;;;;;9.65;7.32;;;16.60;99.90;;;;;;5053663;28;20255;-72
2021/08/28 12:28:48;;;;;;;7.80;7.20;;;16.60;99.90;;;;;;5053530;28;20195;-72
2021/08/28 12:31:16;;;;;;;8.48;7.88;;;16.60;99.90;;;;;;5052303;28;20520;-72
2021/08/28 12:33:42;;;;;;;9.10;8.38;;;16.50;99.90;;;;;;5053584;28;20176;-72
2021/08/28 12:36:27;;;;;;;9.70;8.85;;;16.40;99.90;;;;;;5053544;28;20161;-72
2021/08/28 12:39:05;;;;;;;9.88;8.98;;;16.30;99.90;;;;;;5053629;28;20642;-72
2021/08/28 12:41:31;;;;;;;10.63;9.45;;;16.20;99.90;;;;;;5053234;28;20180;-71
2021/08/28 12:43:57;;;;;;;10.32;9.52;;;16.50;99.90;;;;;;5053536;28;20168;-72
2021/08/28 12:46:23;;;;;;;10.60;9.73;;;16.10;99.90;;;;;;5053521;28;20176;-72
2021/08/28 12:49:12;;;;;;;9.75;9.05;;;16.10;99.90;;;;;;5053291;28;20258;-72
2021/08/28 12:51:56;;;;;;;8.93;8.13;;;16.10;99.90;;;;;;5053289;28;20165;-72
2021/08/28 12:54:30;;;;;;;7.68;7.18;;;16.10;99.90;;;;;;5053326;28;20554;-72
2021/08/28 12:57:02;;;;;;;10.15;8.00;;;16.20;99.90;;;;;;5053218;28;20184;-72
2021/08/28 12:59:30;;;;;;;6.95;6.45;;;16.40;99.90;;;;;;5053309;28;20169;-72
2021/08/28 13:01:56;;;;;;;8.18;7.45;;;16.70;99.90;;;;;;5051966;28;20179;-73
2021/08/28 13:04:33;;;;;;;7.18;6.68;;;17.00;99.90;;;;;;5053165;28;20193;-72
2021/08/28 13:07:11;;;;;;;8.35;7.68;;;17.30;99.90;;;;;;5052930;28;20201;-73
2021/08/28 13:10:06;;;;;;;11.00;7.05;;;17.50;99.90;;;;;;5053108;28;20171;-72
2021/08/28 13:12:53;;;;;;;7.63;7.10;;;17.80;99.90;;;;;;5043386;28;20173;-72
2021/08/28 13:15:25;;;;;;;7.55;7.00;;;17.90;99.90;;;;;;5053102;28;20168;-72
2021/08/28 13:18:03;;;;;;;8.27;7.57;;;18.00;99.90;;;;;;5053087;28;20184;-73
2021/08/28 13:20:32;;;;;;;6.32;5.90;;;18.30;99.90;;;;;;5053053;28;20191;-72
2021/08/28 13:23:01;;;;;;;6.40;5.95;;;18.60;99.90;;;;;;5053032;28;20192;-72
2021/08/28 13:25:30;;;;;;;6.50;5.63;;;18.80;99.90;;;;;;5052988;28;20169;-72
2021/08/28 13:27:58;;;;;;;6.47;6.00;;;18.90;99.90;;;;;;5051634;28;20204;-72
2021/08/28 13:30:26;;;;;;;5.88;5.47;;;19.00;99.90;;;;;;5053262;28;20171;-72
2021/08/28 13:33:04;;;;;;;5.57;5.15;;;19.00;99.90;;;;;;5053010;28;20676;-72
2021/08/28 13:35:40;;;;;;;6.35;5.85;;;19.10;99.90;;;;;;5052870;28;20227;-72
2021/08/28 13:38:10;;;;;;;4.97;4.68;;;19.10;99.90;;;;;;5052786;28;20197;-72
2021/08/28 13:40:36;;;;;;;5.20;4.80;;;19.10;99.90;;;;;;5052843;28;20157;-72
2021/08/28 13:43:02;;;;;;;4.25;4.05;;;19.10;99.90;;;;;;5052862;28;20519;-72
2021/08/28 13:45:29;;;;;;;5.53;5.03;;;18.90;99.90;;;;;;5052826;28;20519;-72
2021/08/28 13:47:54;;;;;;;5.30;4.80;;;18.60;99.90;;;;;;5052681;28;20184;-72
2021/08/28 13:50:21;;;;;;;4.80;4.50;;;18.40;99.90;;;;;;5052769;28;20533;-72
2021/08/28 13:52:48;;;;;;;5.30;4.90;;;18.30;99.90;;;;;;5052594;28;20208;-72
2021/08/28 13:55:15;;;;;;;5.75;5.25;;;18.00;99.90;;;;;;5054144;28;20226;-72
2021/08/28 13:57:42;;;;;;;6.03;5.63;;;18.00;99.90;;;;;;5056314;28;20259;-72
2021/08/28 14:00:09;;;;;;;4.70;4.40;;;17.70;99.90;;;;;;5056461;28;20173;-72
2021/08/28 14:02:35;;;;;;;5.07;4.68;;;17.50;99.90;;;;;;5056427;28;20626;-72
2021/08/28 14:05:03;;;;;;;5.95;5.55;;;17.60;99.90;;;;;;5056838;28;20173;-72
2021/08/28 14:07:29;;;;;;;4.60;4.30;;;17.60;99.90;;;;;;5054827;28;20224;-72
2021/08/28 14:09:56;;;;;;;5.32;5.00;;;17.50;99.90;;;;;;5056260;28;20177;-72
2021/08/28 14:12:22;;;;;;;5.45;4.97;;;17.60;99.90;;;;;;5054994;28;20222;-72
2021/08/28 14:14:48;;;;;;;5.95;5.28;;;17.60;99.90;;;;;;5056139;28;20176;-71
2021/08/28 14:17:13;;;;;;;4.88;4.47;;;17.60;99.90;;;;;;5056004;28;20308;-72
2021/08/28 14:19:39;;;;;;;5.15;4.85;;;17.70;99.90;;;;;;5055826;28;20173;-72
2021/08/28 14:22:06;;;;;;;4.85;4.60;;;17.70;99.90;;;;;;5055017;28;20207;-72
2021/08/28 14:24:33;;;;;;;5.68;5.28;;;17.60;99.90;;;;;;5056243;28;20646;-72
2021/08/28 14:26:59;;;;;;;5.53;5.00;;;17.40;99.90;;;;;;5054993;28;20197;-72
2021/08/28 14:29:24;;;;;;;8.18;6.90;;;17.30;99.90;;;;;;5054852;28;20176;-73
2021/08/28 14:31:52;;;;;;;10.20;8.00;;;17.00;99.90;;;;;;5055783;28;20260;-73
2021/08/28 14:34:18;;;;;;;7.95;7.15;;;16.80;99.90;;;;;;5055903;28;20196;-73
2021/08/28 14:36:44;;;;;;;8.40;7.70;;;16.70;99.90;;;;;;5055340;28;20165;-73
2021/08/28 14:39:11;;;;;;;8.73;7.68;;;16.60;99.90;;;;;;5055704;28;20515;-73
2021/08/28 14:41:36;;;;;;;8.90;8.10;;;16.70;99.90;;;;;;5055824;28;20621;-73
2021/08/28 14:44:02;;;;;;;8.48;7.78;;;16.80;99.90;;;;;;5055740;28;20189;-73
2021/08/28 14:46:29;;;;;;;9.63;8.73;;;16.90;99.90;;;;;;5055589;28;20169;-73
2021/08/28 14:48:54;;;;;;;9.75;8.75;;;16.90;99.90;;;;;;5055785;28;20172;-73
2021/08/28 14:51:20;;;;;;;8.52;7.82;;;17.00;99.90;;;;;;5055912;28;20256;-73
2021/08/28 14:53:46;;;;;;;8.98;8.13;;;16.90;99.90;;;;;;5055739;28;20250;-73
2021/08/28 14:56:12;;;;;;;13.85;8.65;;;16.90;99.90;;;;;;5055634;28;20165;-73
2021/08/28 14:58:37;;;;;;;10.05;8.93;;;16.70;99.90;;;;;;5055665;28;20203;-73
2021/08/28 15:01:05;;;;;;;15.00;10.10;;;16.70;99.90;;;;;;5054266;28;20169;-72
2021/08/28 15:03:31;;;;;;;10.77;8.55;;;16.60;99.90;;;;;;5055552;28;20169;-73
2021/08/28 15:05:57;;;;;;;9.57;8.55;;;16.60;99.90;;;;;;5054141;28;20177;-73
2021/08/28 15:08:23;;;;;;;10.23;9.30;;;16.50;99.90;;;;;;5055300;28;20224;-72
2021/08/28 15:10:48;;;;;;;11.48;8.93;;;16.40;99.90;;;;;;5055114;28;20209;-72
2021/08/28 15:13:15;;;;;;;5.68;5.18;;;16.20;99.90;;;;;;5055134;28;20180;-73
2021/08/28 15:15:41;;;;;;;5.80;4.90;;;15.90;99.90;;;;;;5054866;28;20165;-73
2021/08/28 15:18:06;;;;;;;5.40;5.10;;;15.80;99.90;;;;;;5053709;28;20534;-72
2021/08/28 15:20:32;;;;;;;6.90;6.22;;;15.70;99.90;;;;;;5055161;28;20165;-72
2021/08/28 15:22:58;;;;;;;6.55;6.05;;;15.60;99.90;;;;;;5055123;28;20173;-72
2021/08/28 15:25:23;;;;;;;6.05;5.50;;;15.60;99.90;;;;;;5053958;28;20180;-72
2021/08/28 15:27:49;;;;;;;6.10;5.70;;;15.70;99.90;;;;;;5055013;28;20173;-72
2021/08/28 15:30:16;;;;;;;5.45;4.88;;;15.80;99.90;;;;;;5054798;28;20213;-72
2021/08/28 15:32:42;;;;;;;5.07;4.68;;;15.90;99.90;;;;;;5054857;28;20165;-72
2021/08/28 15:35:08;;;;;;;6.55;6.07;;;16.00;99.90;;;;;;5054940;28;20263;-72
2021/08/28 15:37:33;;;;;;;5.45;4.95;;;16.00;99.90;;;;;;5053588;28;20394;-72
2021/08/28 15:39:59;;;;;;;4.65;4.35;;;16.10;99.90;;;;;;5054817;28;20169;-72
2021/08/28 15:42:25;;;;;;;3.65;3.45;;;16.20;99.90;;;;;;5054828;28;20629;-72
2021/08/28 15:44:50;;;;;;;4.80;3.67;;;16.20;99.90;;;;;;5054555;28;20173;-72
2021/08/28 15:47:16;;;;;;;3.55;3.25;;;16.40;99.90;;;;;;5054677;28;20173;-72
2021/08/28 15:49:42;;;;;;;3.35;3.17;;;16.40;99.90;;;;;;5054631;28;20246;-72
2021/08/28 15:52:08;;;;;;;5.15;3.50;;;16.40;99.90;;;;;;5054632;28;20172;-72
2021/08/28 15:54:33;;;;;;;3.65;3.45;;;16.50;99.90;;;;;;5054118;28;20184;-72
2021/08/28 15:57:00;;;;;;;4.07;3.55;;;16.50;99.90;;;;;;5054040;28;20254;-72
2021/08/28 15:59:25;;;;;;;3.78;3.58;;;16.40;99.90;;;;;;5053909;28;20169;-72
2021/08/28 16:01:51;;;;;;;4.47;3.95;;;16.40;99.90;;;;;;5053905;28;20168;-72
2021/08/28 16:04:17;;;;;;;3.67;3.47;;;16.40;99.90;;;;;;5054040;28;20581;-72
2021/08/28 16:06:42;;;;;;;4.15;3.95;;;16.40;99.90;;;;;;5053863;28;20165;-73
2021/08/28 16:09:08;;;;;;;3.83;3.63;;;16.30;99.90;;;;;;5054055;28;20199;-72
2021/08/28 16:11:33;;;;;;;4.05;3.75;;;16.30;99.90;;;;;;5053932;28;20173;-71
2021/08/28 16:13:59;;;;;;;3.80;3.60;;;16.10;99.90;;;;;;5053898;28;20175;-72
2021/08/28 16:16:25;;;;;;;3.88;3.67;;;16.00;99.90;;;;;;5053435;28;20523;-72
2021/08/28 16:18:50;;;;;;;4.47;4.28;;;15.90;99.90;;;;;;5052426;28;20247;-72
2021/08/28 16:21:16;;;;;;;4.45;4.15;;;15.90;99.90;;;;;;5053607;28;20203;-72
2021/08/28 16:23:42;;;;;;;5.22;4.93;;;15.90;99.90;;;;;;5053735;28;20172;-72
2021/08/28 16:26:08;;;;;;;5.97;5.50;;;16.00;99.90;;;;;;5053736;28;20165;-72
2021/08/28 16:28:34;;;;;;;5.20;4.90;;;16.10;99.90;;;;;;5053680;28;20626;-72
2021/08/28 16:31:00;;;;;;;5.30;5.00;;;16.30;99.90;;;;;;5053637;28;20614;-72
2021/08/28 16:33:26;;;;;;;5.55;5.15;;;16.40;99.90;;;;;;5053603;28;20231;-72
2021/08/28 16:35:54;;;;;;;4.90;4.70;;;16.40;99.90;;;;;;5053628;28;20191;-72
2021/08/28 16:38:20;;;;;;;5.93;4.22;;;16.40;99.90;;;;;;5053413;28;20189;-72
2021/08/28 16:40:45;;;;;;;4.80;4.40;;;16.40;99.90;;;;;;5053488;28;20172;-72
2021/08/28 16:43:11;;;;;;;4.55;4.25;;;16.30;99.90;;;;;;5053399;28;20531;-72
2021/08/28 16:45:37;;;;;;;4.78;4.57;;;16.30;99.90;;;;;;5053600;28;20554;-72
2021/08/28 16:48:04;;;;;;;4.93;4.53;;;16.10;99.90;;;;;;5053455;28;20173;-72
2021/08/28 16:50:30;;;;;;;4.97;4.68;;;16.00;99.90;;;;;;5053350;28;20645;-72
2021/08/28 16:52:56;;;;;;;7.65;4.82;;;15.90;99.90;;;;;;5053312;28;20185;-72
2021/08/28 16:55:21;;;;;;;5.63;5.32;;;15.80;99.90;;;;;;5053287;28;20212;-72
2021/08/28 16:57:47;;;;;;;5.35;4.88;;;15.70;99.90;;;;;;5054178;28;20201;-72
2021/08/28 17:00:14;;;;;;;4.75;4.47;;;15.60;99.90;;;;;;5059649;28;20196;-72
2021/08/28 17:02:39;;;;;;;3.30;3.10;;;15.50;99.90;;;;;;5053272;28;20177;-72
2021/08/28 17:37:44;;;;;;;7.22;6.57;;;15.30;99.90;;;;;;5090908;28;20665;-72
2021/08/28 17:40:11;;;;;;;8.73;7.72;;;15.10;99.90;;;;;;5090894;28;20633;-72
2021/08/28 17:42:36;;;;;;;8.68;7.35;;;15.00;99.90;;;;;;5090799;28;20221;-72
